Easton, Washington
Current Conditions -  °F | °C
As of 12:53 PM on Tuesday 21 Oct 2014 (Local Time) from KELN Reporting Station
Clear Clear  
Wind Chill: 59°   Ceiling: Unl
Heat Index: 59°   Visibility: 10mi
Dew Point: 48°   Wind: 6mph
Humidity: 67%   Direction: 210°SSW
Pressure: 29.92"   Gusts: NA
Location:  47.24°N, 121.18°W
Report Text: KELN 211953Z AUTO 21005KT 10SM CLR 15/09 A2992 RMK AO2 SLP133 T01500089
Loading
Personal Weather Stations






























Interactive Weather Map
Tropical Storm Tracking
New forecast layout! Learn more

10-Day Weather Forecast

Advertisements
Track Severe Weather on mobile